createdAt,value
2023-01-17T00:02:06.220Z,82.90
2023-01-17T00:04:51.504Z,82.90
2023-01-17T00:07:38.938Z,83.00
2023-01-17T00:10:10.412Z,82.90
2023-01-17T00:12:39.897Z,82.80
2023-01-17T00:15:09.115Z,82.90
2023-01-17T00:17:36.944Z,82.80
2023-01-17T00:20:22.438Z,83.00
2023-01-17T00:23:07.932Z,82.90
2023-01-17T00:25:57.035Z,83.80
2023-01-17T00:28:25.945Z,82.90
2023-01-17T00:30:53.435Z,82.90
2023-01-17T00:33:21.493Z,83.10
2023-01-17T00:35:48.384Z,83.00
2023-01-17T00:38:16.932Z,83.00
2023-01-17T00:40:45.378Z,83.00
2023-01-17T00:43:32.009Z,82.90
2023-01-17T00:46:18.831Z,82.90
2023-01-17T00:49:04.457Z,82.80
2023-01-17T00:51:51.771Z,82.90
2023-01-17T00:54:37.222Z,82.80
2023-01-17T00:57:23.378Z,82.90
2023-01-17T01:00:08.735Z,82.90
2023-01-17T01:02:56.426Z,82.90
2023-01-17T01:05:42.508Z,82.90
2023-01-17T01:08:38.633Z,83.10
2023-01-17T01:11:26.283Z,82.70
2023-01-17T01:14:11.746Z,83.70
2023-01-17T01:16:57.318Z,83.10
2023-01-17T01:19:43.896Z,83.10
2023-01-17T01:22:29.422Z,82.90
2023-01-17T01:25:14.782Z,83.10
2023-01-17T01:28:00.177Z,83.10
2023-01-17T01:30:45.627Z,83.10
2023-01-17T01:33:20.318Z,83.20
2023-01-17T01:35:51.298Z,82.90
2023-01-17T01:38:20.583Z,82.90
2023-01-17T01:40:50.512Z,83.10
2023-01-17T01:43:20.792Z,83.10
2023-01-17T01:45:52.744Z,83.00
2023-01-17T01:48:32.730Z,82.90
2023-01-17T01:51:03.145Z,82.90
2023-01-17T01:53:34.098Z,83.00
2023-01-17T01:56:02.392Z,82.90
2023-01-17T01:58:34.722Z,83.20
2023-01-17T02:01:02.744Z,82.90
2023-01-17T02:03:33.145Z,83.20
2023-01-17T02:06:09.121Z,83.10
2023-01-17T02:08:37.350Z,83.10
2023-01-17T02:11:05.367Z,83.10
2023-01-17T02:13:33.191Z,83.30
2023-01-17T02:16:09.536Z,83.30
2023-01-17T02:18:49.994Z,83.10
2023-01-17T02:21:27.121Z,82.90
2023-01-17T02:24:30.515Z,82.90
2023-01-17T02:27:03.532Z,82.80
2023-01-17T02:30:10.226Z,83.10
2023-01-17T02:33:00.629Z,82.80
2023-01-17T02:35:35.765Z,83.00
2023-01-17T02:38:17.227Z,83.10
2023-01-17T02:40:49.256Z,83.00
2023-01-17T02:43:19.587Z,83.30
2023-01-17T02:45:47.454Z,83.20
2023-01-17T02:48:19.584Z,83.30
2023-01-17T02:51:22.985Z,83.10
2023-01-17T02:54:04.466Z,82.90
2023-01-17T02:56:45.676Z,83.00
2023-01-17T02:59:27.597Z,83.70
2023-01-17T03:02:06.436Z,83.10
2023-01-17T03:04:41.372Z,83.00
2023-01-17T03:07:16.273Z,83.10
2023-01-17T03:09:46.311Z,83.20
2023-01-17T03:12:14.625Z,83.30
2023-01-17T03:14:42.446Z,83.30
2023-01-17T03:17:10.363Z,83.40
2023-01-17T03:19:39.523Z,83.30
2023-01-17T03:22:07.368Z,83.20
2023-01-17T03:24:35.181Z,83.20
2023-01-17T03:27:03.107Z,83.30
2023-01-17T03:29:31.004Z,83.40
2023-01-17T03:31:58.845Z,83.40
2023-01-17T03:34:26.686Z,83.30
2023-01-17T03:36:55.846Z,83.30
2023-01-17T03:39:23.728Z,83.30
2023-01-17T03:41:52.308Z,83.40
2023-01-17T03:44:20.119Z,83.30
2023-01-17T03:46:47.906Z,83.40
2023-01-17T03:49:16.571Z,83.40
2023-01-17T03:51:44.405Z,83.40
2023-01-17T03:54:13.581Z,83.50
2023-01-17T03:56:41.392Z,83.40
2023-01-17T03:59:10.953Z,83.50
2023-01-17T04:01:40.819Z,83.50
2023-01-17T04:04:08.756Z,83.50
2023-01-17T04:06:36.537Z,83.50
2023-01-17T04:09:04.555Z,83.60
2023-01-17T04:11:33.728Z,83.50
2023-01-17T04:14:01.552Z,83.30
2023-01-17T04:16:30.884Z,83.50
2023-01-17T04:18:58.799Z,83.50
2023-01-17T04:21:26.597Z,83.50
2023-01-17T04:23:55.084Z,83.70
2023-01-17T04:26:22.900Z,83.50
2023-01-17T04:28:52.196Z,83.60
2023-01-17T04:31:20.060Z,83.40
2023-01-17T04:33:47.980Z,83.70
2023-01-17T04:36:15.870Z,83.70
2023-01-17T04:38:43.667Z,83.50
2023-01-17T04:41:11.462Z,83.60
2023-01-17T04:43:39.338Z,83.60
2023-01-17T04:46:10.008Z,83.60
2023-01-17T04:48:38.177Z,83.20
2023-01-17T04:51:06.881Z,82.90
2023-01-17T04:53:34.745Z,82.90
2023-01-17T04:56:02.791Z,81.80
2023-01-17T04:58:31.128Z,81.30
2023-01-17T05:01:02.554Z,80.80
2023-01-17T05:03:31.807Z,80.20
2023-01-17T05:05:59.637Z,79.70
2023-01-17T05:08:27.484Z,79.60
2023-01-17T05:10:55.289Z,79.30
2023-01-17T05:13:23.118Z,78.80
2023-01-17T05:15:51.280Z,78.50
2023-01-17T05:18:19.501Z,78.40
2023-01-17T05:20:48.654Z,78.10
2023-01-17T05:23:16.523Z,77.70
2023-01-17T05:38:49.106Z,63.50
2023-01-17T05:41:16.949Z,64.00
2023-01-17T05:43:44.773Z,64.00
2023-01-17T05:46:12.803Z,63.90
2023-01-17T05:48:40.646Z,63.80
2023-01-17T05:51:08.540Z,63.60
2023-01-17T05:53:36.416Z,63.50
2023-01-17T05:56:06.026Z,63.30
2023-01-17T05:58:33.860Z,63.10
2023-01-17T06:01:01.775Z,63.00
2023-01-17T06:03:29.661Z,62.90
2023-01-17T06:05:57.511Z,62.50
2023-01-17T06:08:25.422Z,62.50
2023-01-17T06:10:53.282Z,62.30
2023-01-17T06:13:23.043Z,62.30
2023-01-17T06:15:50.970Z,62.20
2023-01-17T06:18:19.653Z,62.20
2023-01-17T06:20:53.024Z,62.00
2023-01-17T06:23:21.217Z,61.90
2023-01-17T06:25:49.531Z,61.80
2023-01-17T06:28:18.628Z,61.70
2023-01-17T06:30:48.140Z,61.70
2023-01-17T06:33:16.489Z,61.60
2023-01-17T06:35:48.896Z,61.50
2023-01-17T06:38:17.183Z,61.50
2023-01-17T06:40:45.082Z,61.30
2023-01-17T06:43:12.968Z,61.20
2023-01-17T06:45:40.868Z,61.10
2023-01-17T06:48:10.046Z,61.10
2023-01-17T06:50:38.146Z,61.00
2023-01-17T06:53:07.746Z,61.00
2023-01-17T06:55:35.954Z,60.90
2023-01-17T06:58:04.036Z,60.80
2023-01-17T07:00:34.844Z,60.90
2023-01-17T07:03:03.124Z,60.80
2023-01-17T07:05:32.736Z,60.70
2023-01-17T07:08:00.571Z,60.70
2023-01-17T07:10:28.500Z,60.60
2023-01-17T07:13:00.550Z,60.60
2023-01-17T07:15:28.431Z,60.40
2023-01-17T07:17:56.320Z,60.10
2023-01-17T07:20:24.202Z,60.00
2023-01-17T07:22:53.364Z,60.10
2023-01-17T07:25:21.246Z,60.20
2023-01-17T07:27:49.159Z,60.30
2023-01-17T07:30:17.554Z,60.40
2023-01-17T07:32:45.379Z,60.60
2023-01-17T07:35:13.203Z,60.80
2023-01-17T07:37:41.018Z,61.00
2023-01-17T07:40:11.874Z,61.20
2023-01-17T07:42:39.693Z,61.40
2023-01-17T07:45:09.021Z,61.50
2023-01-17T07:47:36.836Z,61.80
2023-01-17T07:50:05.530Z,61.90
2023-01-17T07:52:33.383Z,62.00
2023-01-17T07:55:01.293Z,62.20
2023-01-17T07:57:32.434Z,62.30
2023-01-17T08:00:00.278Z,62.40
2023-01-17T08:02:28.124Z,62.60
2023-01-17T08:04:55.946Z,62.50
2023-01-17T08:07:23.858Z,62.70
2023-01-17T08:09:52.852Z,62.80
2023-01-17T08:12:20.666Z,62.80
2023-01-17T08:14:49.818Z,62.90
2023-01-17T08:17:20.366Z,62.90
2023-01-17T08:19:49.939Z,63.10
2023-01-17T08:22:17.924Z,63.20
2023-01-17T08:24:45.739Z,63.20
2023-01-17T08:27:13.599Z,63.20
2023-01-17T08:29:46.826Z,63.20
2023-01-17T08:32:16.244Z,63.20
2023-01-17T08:34:44.062Z,63.30
2023-01-17T08:37:11.905Z,63.30
2023-01-17T08:39:39.859Z,63.50
2023-01-17T08:42:07.821Z,63.60
2023-01-17T08:44:35.719Z,63.80
2023-01-17T08:47:03.622Z,63.80
2023-01-17T08:49:33.064Z,63.80
2023-01-17T08:52:00.928Z,63.90
2023-01-17T08:54:28.762Z,64.00
2023-01-17T08:56:56.582Z,63.80
2023-01-17T08:59:24.475Z,63.50
2023-01-17T09:01:52.774Z,63.50
2023-01-17T09:04:20.752Z,63.60
2023-01-17T09:06:49.986Z,63.60
2023-01-17T09:09:18.524Z,63.30
2023-01-17T09:11:46.381Z,62.80
2023-01-17T09:14:15.407Z,62.30
2023-01-17T09:16:43.315Z,61.90
2023-01-17T09:19:11.239Z,61.40
2023-01-17T09:21:39.047Z,61.00
2023-01-17T09:24:08.476Z,61.40
2023-01-17T09:26:36.396Z,61.80
2023-01-17T09:29:04.328Z,62.20
2023-01-17T09:31:32.152Z,62.50
2023-01-17T09:34:00.039Z,62.50
2023-01-17T09:36:31.666Z,62.50
2023-01-17T09:39:00.286Z,62.40
2023-01-17T09:41:31.842Z,62.80
2023-01-17T09:44:05.219Z,63.00
2023-01-17T09:46:38.331Z,63.20
2023-01-17T09:49:09.641Z,63.10
2023-01-17T09:51:38.051Z,63.10
2023-01-17T09:54:06.230Z,63.00
2023-01-17T09:56:40.968Z,63.00
2023-01-17T09:59:33.166Z,63.20
2023-01-17T10:02:12.822Z,64.10
2023-01-17T10:04:55.479Z,63.50
2023-01-17T10:07:33.393Z,63.60
2023-01-17T10:10:13.937Z,63.60
2023-01-17T10:12:51.716Z,63.60
2023-01-17T10:15:43.514Z,63.80
2023-01-17T10:18:30.484Z,63.90
2023-01-17T10:21:05.440Z,64.00
2023-01-17T10:23:47.553Z,64.10
2023-01-17T10:26:18.137Z,64.10
2023-01-17T10:28:51.022Z,64.20
2023-01-17T10:31:23.751Z,64.10
2023-01-17T10:33:53.810Z,63.60
2023-01-17T10:36:23.623Z,63.30
2023-01-17T10:38:54.582Z,63.10
2023-01-17T10:41:30.024Z,63.00
2023-01-17T10:44:06.675Z,63.20
2023-01-17T10:46:40.537Z,63.30
2023-01-17T10:49:17.549Z,63.50
2023-01-17T10:52:00.785Z,63.30
2023-01-17T10:54:47.427Z,63.30
2023-01-17T10:57:18.485Z,63.00
2023-01-17T10:59:47.660Z,63.10
2023-01-17T11:02:22.343Z,63.30
2023-01-17T11:04:54.310Z,63.30
2023-01-17T11:07:23.989Z,63.20
2023-01-17T11:09:54.410Z,63.20
2023-01-17T11:12:28.469Z,63.50
2023-01-17T11:15:06.333Z,64.90
2023-01-17T11:17:37.233Z,64.40
2023-01-17T11:20:15.042Z,64.30
2023-01-17T11:22:46.882Z,64.50
2023-01-17T11:25:22.965Z,64.70
2023-01-17T11:28:01.118Z,64.80
2023-01-17T11:30:30.654Z,64.30
2023-01-17T11:33:00.329Z,64.00
2023-01-17T11:35:31.253Z,63.80
2023-01-17T11:38:05.076Z,63.90
2023-01-17T11:40:37.475Z,64.00
2023-01-17T11:43:24.333Z,64.00
2023-01-17T11:46:05.397Z,63.90
2023-01-17T11:48:38.531Z,63.80
2023-01-17T11:51:19.755Z,63.60
2023-01-17T11:53:49.014Z,63.60
2023-01-17T11:56:25.767Z,63.50
2023-01-17T11:59:06.450Z,63.70
2023-01-17T12:01:44.236Z,63.60
2023-01-17T12:04:28.252Z,63.60
2023-01-17T12:07:11.651Z,63.60
2023-01-17T12:09:48.033Z,63.70
2023-01-17T12:12:46.890Z,63.70
2023-01-17T12:15:34.318Z,63.80
2023-01-17T12:18:26.822Z,63.80
2023-01-17T12:21:07.324Z,64.10
2023-01-17T12:23:46.623Z,64.10
2023-01-17T12:26:24.511Z,64.50
2023-01-17T12:29:23.138Z,64.80
2023-01-17T12:32:00.949Z,65.10
2023-01-17T12:34:38.741Z,65.30
2023-01-17T12:37:15.889Z,65.40
2023-01-17T12:39:52.376Z,65.60
2023-01-17T12:42:25.014Z,65.70
2023-01-17T12:44:57.830Z,65.70
2023-01-17T12:47:26.116Z,65.80
2023-01-17T12:50:03.803Z,66.00
2023-01-17T12:52:46.151Z,66.20
2023-01-17T12:55:20.140Z,66.20
2023-01-17T12:57:57.066Z,66.40
2023-01-17T13:00:29.611Z,66.60
2023-01-17T13:03:05.291Z,66.80
2023-01-17T13:05:38.529Z,66.80
2023-01-17T13:08:19.689Z,67.00
2023-01-17T13:10:54.371Z,67.20
2023-01-17T13:13:24.118Z,67.30
2023-01-17T13:15:55.162Z,67.50
2023-01-17T13:18:26.921Z,67.60
2023-01-17T13:21:10.063Z,67.60
2023-01-17T13:23:51.405Z,67.70
2023-01-17T13:26:28.321Z,67.80
2023-01-17T13:29:04.922Z,67.70
2023-01-17T13:31:45.663Z,67.70
2023-01-17T13:34:41.073Z,67.80
2023-01-17T13:37:34.393Z,67.90
2023-01-17T13:40:32.831Z,67.90
2023-01-17T13:43:02.624Z,68.00
2023-01-17T13:45:33.189Z,68.00
2023-01-17T13:48:25.622Z,68.10
2023-01-17T13:50:55.787Z,68.10
2023-01-17T13:53:56.054Z,68.10
2023-01-17T13:56:36.806Z,68.10
2023-01-17T13:59:35.806Z,68.10
2023-01-17T14:02:03.733Z,68.30
2023-01-17T14:05:05.274Z,68.40
2023-01-17T14:07:35.483Z,68.50
2023-01-17T14:10:22.047Z,68.60
2023-01-17T14:12:51.052Z,68.60
2023-01-17T14:15:21.849Z,68.50
2023-01-17T14:17:56.793Z,68.50
2023-01-17T14:20:50.203Z,68.50
2023-01-17T14:23:35.892Z,68.50
2023-01-17T14:26:33.085Z,68.50
2023-01-17T14:29:39.307Z,68.50
2023-01-17T14:32:10.792Z,68.50
2023-01-17T14:34:38.896Z,68.50
2023-01-17T14:37:18.393Z,68.50
2023-01-17T14:39:47.342Z,68.50
2023-01-17T14:42:18.671Z,68.50
2023-01-17T14:44:48.957Z,68.50
2023-01-17T14:47:17.713Z,68.50
2023-01-17T14:49:45.869Z,68.60
2023-01-17T14:52:18.532Z,68.60
2023-01-17T14:54:50.939Z,68.60
2023-01-17T14:57:29.126Z,68.60
2023-01-17T15:00:17.216Z,68.60
2023-01-17T15:02:45.980Z,68.50
2023-01-17T15:05:16.038Z,68.60
2023-01-17T15:07:46.717Z,68.50
2023-01-17T15:10:16.909Z,68.60
2023-01-17T15:12:47.441Z,68.60
2023-01-17T15:15:35.228Z,68.60
2023-01-17T15:18:10.592Z,68.70
2023-01-17T15:20:40.005Z,68.70
2023-01-17T15:23:14.597Z,68.70
2023-01-17T15:25:43.088Z,68.70
2023-01-17T15:28:14.204Z,68.80
2023-01-17T15:31:08.665Z,68.80
2023-01-17T15:33:38.831Z,68.80
2023-01-17T15:36:08.813Z,68.90
2023-01-17T15:38:39.620Z,69.00
2023-01-17T15:41:13.469Z,69.00
2023-01-17T15:43:45.059Z,69.00
2023-01-17T15:46:31.489Z,69.10
2023-01-17T15:49:18.203Z,69.20
2023-01-17T15:51:50.261Z,69.60
2023-01-17T15:54:44.548Z,69.30
2023-01-17T15:57:25.749Z,69.20
2023-01-17T15:59:59.413Z,69.30
2023-01-17T16:02:33.406Z,69.30
2023-01-17T16:05:03.628Z,69.30
2023-01-17T16:07:34.935Z,69.30
2023-01-17T16:10:07.818Z,69.30
2023-01-17T16:12:35.631Z,69.30
2023-01-17T16:15:12.954Z,69.40
2023-01-17T16:17:45.399Z,69.40
2023-01-17T16:20:20.236Z,69.40
2023-01-17T16:22:48.860Z,69.40
2023-01-17T16:25:19.173Z,69.30
2023-01-17T16:27:47.232Z,69.30
2023-01-17T16:30:18.547Z,69.20
2023-01-17T16:32:48.580Z,69.30
2023-01-17T16:35:20.601Z,69.20
2023-01-17T16:37:50.679Z,69.20
2023-01-17T16:40:19.083Z,69.20
2023-01-17T16:42:47.083Z,69.20
2023-01-17T16:45:17.231Z,69.20
2023-01-17T16:47:46.917Z,69.20
2023-01-17T16:50:17.207Z,69.20
2023-01-17T16:52:45.108Z,69.20
2023-01-17T16:55:15.168Z,69.30
2023-01-17T16:57:43.588Z,69.20
2023-01-17T17:00:13.067Z,69.30
2023-01-17T17:02:42.475Z,69.20
2023-01-17T17:05:11.702Z,70.00
2023-01-17T17:07:42.789Z,69.20
2023-01-17T17:10:11.787Z,69.20
2023-01-17T17:12:39.603Z,69.20
2023-01-17T17:15:08.571Z,69.20
2023-01-17T17:17:36.801Z,69.30
2023-01-17T17:20:08.525Z,69.20
2023-01-17T17:22:36.357Z,69.20
2023-01-17T17:25:05.147Z,69.20
2023-01-17T17:27:33.323Z,69.20
2023-01-17T17:30:01.292Z,69.30
2023-01-17T17:32:29.194Z,69.30
2023-01-17T17:34:57.045Z,69.30
2023-01-17T17:37:28.857Z,69.30
2023-01-17T17:39:56.873Z,69.30
2023-01-17T17:42:25.545Z,69.30
2023-01-17T17:44:53.567Z,69.30
2023-01-17T17:47:21.452Z,69.40
2023-01-17T17:49:49.336Z,69.40
2023-01-17T17:52:17.172Z,69.40
2023-01-17T17:54:46.399Z,69.40
2023-01-17T17:57:14.236Z,69.50
2023-01-17T17:59:42.046Z,69.40
2023-01-17T18:02:11.500Z,69.40
2023-01-17T18:04:39.738Z,69.40
2023-01-17T18:07:07.612Z,69.40
2023-01-17T18:09:35.487Z,69.40
2023-01-17T18:12:04.979Z,69.40
2023-01-17T18:14:32.957Z,69.50
2023-01-17T18:17:00.804Z,69.60
2023-01-17T18:19:28.721Z,69.60
2023-01-17T18:21:56.619Z,69.60
2023-01-17T18:24:25.782Z,69.70
2023-01-17T18:26:55.889Z,69.60
2023-01-17T18:29:26.294Z,69.60
2023-01-17T18:31:55.302Z,69.60
2023-01-17T18:34:26.991Z,69.60
2023-01-17T18:36:54.975Z,69.60
2023-01-17T18:39:25.330Z,69.50
2023-01-17T18:41:53.877Z,69.50
2023-01-17T18:44:22.490Z,69.50
2023-01-17T18:46:53.574Z,69.40
2023-01-17T18:49:21.597Z,69.40
2023-01-17T18:51:50.914Z,69.50
2023-01-17T18:54:20.298Z,69.50
2023-01-17T18:56:48.380Z,69.60
2023-01-17T18:59:18.123Z,69.70
2023-01-17T19:01:46.628Z,69.70
2023-01-17T19:04:17.322Z,69.70
2023-01-17T19:06:49.196Z,69.80
2023-01-17T19:09:18.110Z,69.80
2023-01-17T19:11:47.320Z,69.90
2023-01-17T19:14:17.790Z,70.70
2023-01-17T19:16:45.938Z,70.00
2023-01-17T19:19:16.443Z,70.00
2023-01-17T19:21:44.716Z,70.10
2023-01-17T19:24:14.183Z,70.10
2023-01-17T19:26:42.218Z,70.10
2023-01-17T19:29:10.437Z,70.10
2023-01-17T19:31:42.333Z,70.10
2023-01-17T19:34:15.894Z,70.10
2023-01-17T19:36:43.864Z,70.20
2023-01-17T19:39:11.953Z,70.20
2023-01-17T19:41:43.444Z,70.20
2023-01-17T19:44:12.752Z,70.30
2023-01-17T19:46:41.013Z,70.30
2023-01-17T19:49:10.238Z,70.20
2023-01-17T19:51:40.269Z,70.30
2023-01-17T19:54:08.810Z,70.30
2023-01-17T19:56:36.685Z,70.20
2023-01-17T19:59:04.756Z,70.20
2023-01-17T20:01:34.641Z,70.30
2023-01-17T20:04:03.462Z,70.30
2023-01-17T20:06:34.287Z,70.40
2023-01-17T20:09:04.528Z,70.30
2023-01-17T20:11:32.981Z,70.40
2023-01-17T20:14:01.001Z,70.40
2023-01-17T20:16:30.649Z,70.40
2023-01-17T20:18:59.351Z,70.40
2023-01-17T20:21:28.414Z,70.40
2023-01-17T20:23:57.709Z,70.40
2023-01-17T20:26:35.296Z,70.40
2023-01-17T20:29:06.704Z,70.50
2023-01-17T20:31:37.907Z,70.50
2023-01-17T20:34:07.123Z,70.50
2023-01-17T20:36:36.848Z,70.50
2023-01-17T20:39:06.245Z,70.50
2023-01-17T20:41:36.767Z,70.50
2023-01-17T20:44:07.831Z,70.40
2023-01-17T20:46:40.521Z,70.50
2023-01-17T20:49:13.274Z,70.40
2023-01-17T20:51:41.640Z,70.40
2023-01-17T20:54:12.807Z,70.40
2023-01-17T20:56:42.759Z,70.50
2023-01-17T20:59:14.344Z,70.50
